Accueil
METAR-TAF:

METAR-TAF

Aéroports :

Aéroport de Singapour-Changi

Singapour, Singapour

latitude: 01-22N, longitude: 103-59E, altitude: 5 m

Observation

Le bulletin a été fait il y a 10 minutes, à 19:00 UTC
Vent 2 kt de direction variable
Température 26°C
Humidité 89%
Pression 1012 hPa
Visibilité 10 km ou plus
Quelques nuages à une hauteur de 2000 ft
Nuages fragmentés à une hauteur de 30000 ft

METAR: WSSS 221900Z VRB02KT 9999 FEW020 BKN300 26/24 Q1012 NOSIG

Heure: 03:10 (19:10 UTC)

Prévision

Le bulletin a été fait il y a 2 heures et 10 minutes, à 17:00 UTC
Prévision valable du 22 à 18 UTC au 24 à 00 UTC
Vent 7 kt de sud/sud-est
Visibilité 10 km ou plus
Quelques nuages à une hauteur de 1800 ft, Cumulonimbus.
Nuages épars à une hauteur de 2000 ft

TAF: WSSS 221700Z 2218/2400 16007KT 9999 FEW018CB SCT020

Observations et prévisions météorologiques de plus de 4000 aéroports (messages METAR et TAF).

Les stations disponibles sont représentées par des disques jaunes et rouges sur la carte.

Passer la souris dessus pour voir le nom de la station.

Cliquer dessus pour voir les observations et prévisions météorologiques.

Pour changer de carte: cliquez sur les boutons verts avec une croix noire pour zoomer, sur le bouton vert avec un tiret pour effectuer un zoom arrière, ou sur les flèches vertes pour les cartes adjacentes.


METAR-TAF: